Time,TemperatureF,DewpointF,PressureIn,WindDirection,WindDirectionDegrees,WindSpeedMPH,WindSpeedGustMPH,Humidity,HourlyPrecipIn,Conditions,Clouds,dailyrainin,SolarRadiationWatts/m^2,SoftwareType,DateUTC
2013-05-22 00:02:00,65.0,64.0,-100.00,SE,130,4.0,7.0,98,0.04,,,1.52,0.000000,,2013-05-22 05:02:00,
2013-05-22 00:12:00,65.0,64.0,-100.00,SE,130,4.0,7.0,98,0.04,,,1.52,0.000000,,2013-05-22 05:12:00,
2013-05-22 00:21:00,65.0,64.0,-100.00,SE,130,4.0,7.0,98,0.04,,,1.52,0.000000,,2013-05-22 05:21:00,
2013-05-22 00:52:00,65.0,64.0,-100.00,SSE,164,5.0,9.0,97,0.00,,,1.52,0.000000,,2013-05-22 05:52:00,
2013-05-22 01:01:00,65.0,64.0,-100.00,SSE,164,5.0,9.0,97,0.00,,,1.52,0.000000,,2013-05-22 06:01:00,
2013-05-22 01:12:00,65.0,64.0,-100.00,SSE,164,5.0,9.0,97,0.00,,,1.52,0.000000,,2013-05-22 06:12:00,
2013-05-22 01:21:00,65.0,64.0,-100.00,SSE,164,5.0,9.0,97,0.00,,,1.52,0.000000,,2013-05-22 06:21:00,
2013-05-22 01:52:00,65.0,64.0,-100.00,South,175,5.0,9.0,96,0.01,,,1.53,0.000000,,2013-05-22 06:52:00,
2013-05-22 02:01:00,65.0,64.0,-100.00,South,175,5.0,9.0,96,0.01,,,1.53,0.000000,,2013-05-22 07:01:00,
2013-05-22 02:11:00,65.0,64.0,-100.00,South,175,5.0,9.0,96,0.01,,,1.53,0.000000,,2013-05-22 07:11:00,
2013-05-22 02:21:00,65.0,64.0,-100.00,South,175,5.0,9.0,96,0.01,,,1.53,0.000000,,2013-05-22 07:21:00,
2013-05-22 02:53:00,65.0,64.0,-100.00,South,175,7.0,15.0,96,0.02,,,1.55,0.000000,,2013-05-22 07:53:00,
2013-05-22 03:02:00,65.0,64.0,-100.00,South,175,7.0,15.0,96,0.02,,,1.55,0.000000,,2013-05-22 08:02:00,
2013-05-22 03:11:00,65.0,64.0,-100.00,South,175,7.0,15.0,96,0.02,,,1.55,0.000000,,2013-05-22 08:11:00,
2013-05-22 03:22:00,65.0,64.0,-100.00,South,175,7.0,15.0,96,0.02,,,1.55,0.000000,,2013-05-22 08:22:00,
2013-05-22 03:52:00,64.0,63.0,-100.00,SE,128,6.0,14.0,96,0.20,,,1.75,0.000000,,2013-05-22 08:52:00,
2013-05-22 04:01:00,64.0,63.0,-100.00,SE,128,6.0,14.0,96,0.20,,,1.75,0.000000,,2013-05-22 09:01:00,
2013-05-22 04:12:00,64.0,63.0,-100.00,SE,128,6.0,14.0,96,0.20,,,1.75,0.000000,,2013-05-22 09:12:00,
2013-05-22 04:22:00,64.0,63.0,-100.00,SE,128,6.0,14.0,96,0.20,,,1.75,0.000000,,2013-05-22 09:22:00,
2013-05-22 04:53:00,63.0,62.0,-100.00,SW,220,3.0,11.0,97,0.02,,,1.77,0.000000,,2013-05-22 09:53:00,
2013-05-22 05:03:00,63.0,62.0,-100.00,SW,220,3.0,11.0,97,0.02,,,1.77,0.000000,,2013-05-22 10:03:00,
2013-05-22 05:12:00,63.0,62.0,-100.00,SW,220,3.0,11.0,97,0.02,,,1.77,0.000000,,2013-05-22 10:12:00,
2013-05-22 05:22:00,63.0,62.0,-100.00,SW,220,3.0,11.0,97,0.02,,,1.77,0.000000,,2013-05-22 10:22:00,
2013-05-22 05:53:00,63.0,62.0,-100.00,WSW,251,3.0,7.0,96,0.00,,,1.48,0.000000,,2013-05-22 10:53:00,
2013-05-22 06:02:00,63.0,62.0,-100.00,WSW,251,3.0,7.0,96,0.00,,,1.48,0.000000,,2013-05-22 11:02:00,
2013-05-22 06:11:00,63.0,62.0,-100.00,WSW,251,3.0,7.0,96,0.00,,,1.48,0.000000,,2013-05-22 11:11:00,
2013-05-22 06:22:00,63.0,62.0,-100.00,WSW,251,3.0,7.0,96,0.00,,,1.48,0.000000,,2013-05-22 11:22:00,
2013-05-22 06:53:00,63.0,62.0,-100.00,SSW,199,2.0,7.0,98,0.00,,,1.46,15.000000,,2013-05-22 11:53:00,
2013-05-22 07:02:00,63.0,62.0,-100.00,SSW,199,2.0,7.0,98,0.00,,,1.46,15.000000,,2013-05-22 12:02:00,
2013-05-22 07:12:00,63.0,62.0,-100.00,SSW,199,2.0,7.0,98,0.00,,,1.46,15.000000,,2013-05-22 12:12:00,
2013-05-22 07:22:00,63.0,62.0,-100.00,SSW,199,2.0,7.0,98,0.00,,,1.46,15.000000,,2013-05-22 12:22:00,
2013-05-22 07:52:00,65.0,64.0,-100.00,South,188,3.0,7.0,96,0.00,,,1.44,78.000000,,2013-05-22 12:52:00,
2013-05-22 08:01:00,65.0,64.0,-100.00,South,188,3.0,7.0,96,0.00,,,1.44,78.000000,,2013-05-22 13:01:00,
2013-05-22 08:11:00,65.0,64.0,-100.00,South,188,3.0,7.0,96,0.00,,,1.44,78.000000,,2013-05-22 13:11:00,
2013-05-22 08:22:00,65.0,64.0,-100.00,South,188,3.0,7.0,96,0.00,,,1.44,78.000000,,2013-05-22 13:22:00,
2013-05-22 08:52:00,65.0,63.0,-100.00,SSW,205,5.0,11.0,93,0.00,,,1.44,194.000000,,2013-05-22 13:52:00,
2013-05-22 09:02:00,65.0,63.0,-100.00,SSW,205,5.0,11.0,93,0.00,,,1.44,194.000000,,2013-05-22 14:02:00,
2013-05-22 09:11:00,65.0,63.0,-100.00,SSW,205,5.0,11.0,93,0.00,,,1.44,194.000000,,2013-05-22 14:11:00,
2013-05-22 09:21:00,65.0,63.0,-100.00,SSW,205,5.0,11.0,93,0.00,,,1.44,194.000000,,2013-05-22 14:21:00,
2013-05-22 09:53:00,67.0,64.0,-100.00,SSW,199,5.0,14.0,89,0.00,,,1.44,253.000000,,2013-05-22 14:53:00,
2013-05-22 10:01:00,67.0,64.0,-100.00,SSW,199,5.0,14.0,89,0.00,,,1.44,253.000000,,2013-05-22 15:01:00,
2013-05-22 10:11:00,67.0,64.0,-100.00,SSW,199,5.0,14.0,89,0.00,,,1.44,253.000000,,2013-05-22 15:11:00,
2013-05-22 10:22:00,67.0,64.0,-100.00,SSW,199,5.0,14.0,89,0.00,,,1.44,253.000000,,2013-05-22 15:22:00,
2013-05-22 10:53:00,69.0,64.0,-100.00,SW,224,6.0,12.0,85,0.00,,,1.44,318.000000,,2013-05-22 15:53:00,
2013-05-22 11:03:00,69.0,64.0,-100.00,SW,224,6.0,12.0,85,0.00,,,1.44,318.000000,,2013-05-22 16:03:00,
2013-05-22 11:12:00,69.0,64.0,-100.00,SW,224,6.0,12.0,85,0.00,,,1.44,318.000000,,2013-05-22 16:12:00,
2013-05-22 11:23:00,69.0,64.0,-100.00,SW,224,6.0,12.0,85,0.00,,,1.44,318.000000,,2013-05-22 16:23:00,
2013-05-22 11:52:00,71.0,64.0,-100.00,SW,227,7.0,13.0,78,0.00,,,1.28,497.000000,,2013-05-22 16:52:00,
2013-05-22 12:02:00,71.0,64.0,-100.00,SW,227,7.0,13.0,78,0.00,,,1.28,497.000000,,2013-05-22 17:02:00,
2013-05-22 12:11:00,71.0,64.0,-100.00,SW,227,7.0,13.0,78,0.00,,,1.28,497.000000,,2013-05-22 17:11:00,
2013-05-22 12:23:00,71.0,64.0,-100.00,SW,227,7.0,13.0,78,0.00,,,1.28,497.000000,,2013-05-22 17:23:00,
2013-05-22 12:54:00,75.0,65.0,-100.00,SW,215,6.0,14.0,71,0.00,,,1.20,733.000000,,2013-05-22 17:54:00,
2013-05-22 13:02:00,75.0,65.0,-100.00,SW,215,6.0,14.0,71,0.00,,,1.20,733.000000,,2013-05-22 18:02:00,
2013-05-22 13:14:00,75.0,65.0,-100.00,SW,215,6.0,14.0,71,0.00,,,1.20,733.000000,,2013-05-22 18:14:00,
2013-05-22 13:22:00,75.0,65.0,-100.00,SW,215,6.0,14.0,71,0.00,,,1.20,733.000000,,2013-05-22 18:22:00,
2013-05-22 13:52:00,72.0,65.0,-100.00,SW,216,4.0,12.0,78,0.00,,,1.14,430.000000,,2013-05-22 18:52:00,
2013-05-22 14:02:00,72.0,65.0,-100.00,SW,216,4.0,12.0,78,0.00,,,1.14,430.000000,,2013-05-22 19:02:00,
2013-05-22 14:11:00,72.0,65.0,-100.00,SW,216,4.0,12.0,78,0.00,,,1.14,430.000000,,2013-05-22 19:11:00,
2013-05-22 14:21:00,72.0,65.0,-100.00,SW,216,4.0,12.0,78,0.00,,,1.14,430.000000,,2013-05-22 19:21:00,
2013-05-22 14:52:00,75.0,65.0,-100.00,SW,222,6.0,15.0,72,0.00,,,1.14,566.000000,,2013-05-22 19:52:00,
2013-05-22 15:02:00,75.0,65.0,-100.00,SW,222,6.0,15.0,72,0.00,,,1.14,566.000000,,2013-05-22 20:02:00,
2013-05-22 15:11:00,75.0,65.0,-100.00,SW,222,6.0,15.0,72,0.00,,,1.14,566.000000,,2013-05-22 20:11:00,
2013-05-22 15:22:00,75.0,65.0,-100.00,SW,222,6.0,15.0,72,0.00,,,1.14,566.000000,,2013-05-22 20:22:00,
2013-05-22 15:52:00,75.0,66.0,-100.00,SW,227,5.0,15.0,73,0.00,,,1.14,573.000000,,2013-05-22 20:52:00,
2013-05-22 16:01:00,75.0,66.0,-100.00,SW,227,5.0,15.0,73,0.00,,,1.14,573.000000,,2013-05-22 21:01:00,
2013-05-22 16:11:00,75.0,66.0,-100.00,SW,227,5.0,15.0,73,0.00,,,1.14,573.000000,,2013-05-22 21:11:00,
2013-05-22 16:21:00,75.0,66.0,-100.00,SW,227,5.0,15.0,73,0.00,,,1.14,573.000000,,2013-05-22 21:21:00,
2013-05-22 16:53:00,76.0,64.0,-100.00,SW,224,6.0,13.0,66,0.00,,,1.14,642.000000,,2013-05-22 21:53:00,
2013-05-22 17:03:00,76.0,64.0,-100.00,SW,224,6.0,13.0,66,0.00,,,1.14,642.000000,,2013-05-22 22:03:00,
2013-05-22 17:13:00,76.0,64.0,-100.00,SW,224,6.0,13.0,66,0.00,,,1.14,642.000000,,2013-05-22 22:13:00,
2013-05-22 17:22:00,76.0,64.0,-100.00,SW,224,6.0,13.0,66,0.00,,,1.14,642.000000,,2013-05-22 22:22:00,
2013-05-22 17:52:00,77.0,64.0,-100.00,SW,224,6.0,12.0,64,0.00,,,1.14,411.000000,,2013-05-22 22:52:00,
2013-05-22 18:02:00,77.0,64.0,-100.00,SW,224,6.0,12.0,64,0.00,,,1.14,411.000000,,2013-05-22 23:02:00,
2013-05-22 18:12:00,77.0,64.0,-100.00,SW,224,6.0,12.0,64,0.00,,,1.14,411.000000,,2013-05-22 23:12:00,
2013-05-22 18:21:00,77.0,64.0,-100.00,SW,224,6.0,12.0,64,0.00,,,1.14,411.000000,,2013-05-22 23:21:00,
2013-05-22 18:53:00,76.0,62.0,-100.00,SW,236,4.0,9.0,63,0.00,,,1.14,303.000000,,2013-05-22 23:53:00,
2013-05-22 19:01:00,76.0,62.0,-100.00,SW,236,4.0,9.0,63,0.00,,,1.14,303.000000,,2013-05-23 00:01:00,
2013-05-22 19:11:00,76.0,62.0,-100.00,SW,236,4.0,9.0,63,0.00,,,1.14,303.000000,,2013-05-23 00:11:00,
2013-05-22 19:22:00,76.0,62.0,-100.00,SW,236,4.0,9.0,63,0.00,,,1.14,303.000000,,2013-05-23 00:22:00,
2013-05-22 19:52:00,72.0,62.0,-100.00,SW,236,3.0,8.0,70,0.00,,,0.91,119.000000,,2013-05-23 00:52:00,
2013-05-22 20:01:00,72.0,62.0,-100.00,SW,236,3.0,8.0,70,0.00,,,0.91,119.000000,,2013-05-23 01:01:00,
2013-05-22 20:11:00,72.0,62.0,-100.00,SW,236,3.0,8.0,70,0.00,,,0.91,119.000000,,2013-05-23 01:11:00,
2013-05-22 20:22:00,72.0,62.0,-100.00,SW,236,3.0,8.0,70,0.00,,,0.91,119.000000,,2013-05-23 01:22:00,
2013-05-22 20:52:00,67.0,62.0,-100.00,WSW,240,1.0,5.0,85,0.00,,,0.74,8.000000,,2013-05-23 01:52:00,
2013-05-22 21:02:00,67.0,62.0,-100.00,WSW,240,1.0,5.0,85,0.00,,,0.74,8.000000,,2013-05-23 02:02:00,
2013-05-22 21:11:00,67.0,62.0,-100.00,WSW,240,1.0,5.0,85,0.00,,,0.74,8.000000,,2013-05-23 02:11:00,
2013-05-22 21:21:00,67.0,62.0,-100.00,WSW,240,1.0,5.0,85,0.00,,,0.74,8.000000,,2013-05-23 02:21:00,
2013-05-22 22:02:00,65.0,61.0,-100.00,SW,227,0.0,3.0,88,0.00,,,0.46,0.000000,,2013-05-23 03:02:00,
2013-05-22 22:11:00,65.0,61.0,-100.00,SW,227,0.0,3.0,88,0.00,,,0.46,0.000000,,2013-05-23 03:11:00,
2013-05-22 22:21:00,65.0,61.0,-100.00,SW,227,0.0,3.0,88,0.00,,,0.46,0.000000,,2013-05-23 03:21:00,
2013-05-22 22:53:00,65.0,60.0,-100.00,SW,223,0.0,4.0,85,0.00,,,0.29,0.000000,,2013-05-23 03:53:00,
2013-05-22 23:03:00,65.0,60.0,-100.00,SW,223,0.0,4.0,85,0.00,,,0.29,0.000000,,2013-05-23 04:03:00,
2013-05-22 23:12:00,65.0,60.0,-100.00,SW,223,0.0,4.0,85,0.00,,,0.29,0.000000,,2013-05-23 04:12:00,
2013-05-22 23:22:00,65.0,60.0,-100.00,SW,223,0.0,4.0,85,0.00,,,0.29,0.000000,,2013-05-23 04:22:00,
2013-05-22 23:52:00,63.0,61.0,-100.00,WSW,238,0.0,3.0,92,0.00,,,0.25,0.000000,,2013-05-23 04:52:00,